sensor_id;sensor_type;location;lat;lon;timestamp;temperature;humidity
53208;DHT22;39093;52.788;6.940;2023-04-25T00:01:46;7.00;99.90
53208;DHT22;39093;52.788;6.940;2023-04-25T00:04:14;7.00;99.90
53208;DHT22;39093;52.788;6.940;2023-04-25T00:06:42;6.90;99.90
53208;DHT22;39093;52.788;6.940;2023-04-25T00:09:09;6.90;99.90
53208;DHT22;39093;52.788;6.940;2023-04-25T00:11:37;6.80;99.90
53208;DHT22;39093;52.788;6.940;2023-04-25T00:14:04;6.90;99.90
53208;DHT22;39093;52.788;6.940;2023-04-25T00:16:33;6.80;99.90
53208;DHT22;39093;52.788;6.940;2023-04-25T00:19:02;6.80;99.90
53208;DHT22;39093;52.788;6.940;2023-04-25T00:21:30;6.90;99.90
53208;DHT22;39093;52.788;6.940;2023-04-25T00:23:59;6.80;99.90
53208;DHT22;39093;52.788;6.940;2023-04-25T00:26:26;6.80;99.90
53208;DHT22;39093;52.788;6.940;2023-04-25T00:28:53;6.90;99.90
53208;DHT22;39093;52.788;6.940;2023-04-25T00:31:20;6.80;99.90
53208;DHT22;39093;52.788;6.940;2023-04-25T00:33:48;6.80;99.90
53208;DHT22;39093;52.788;6.940;2023-04-25T00:36:16;6.80;99.90
53208;DHT22;39093;52.788;6.940;2023-04-25T00:38:43;6.80;99.90
53208;DHT22;39093;52.788;6.940;2023-04-25T00:41:10;6.70;99.90
53208;DHT22;39093;52.788;6.940;2023-04-25T00:43:39;6.70;99.90
53208;DHT22;39093;52.788;6.940;2023-04-25T00:46:06;6.70;99.90
53208;DHT22;39093;52.788;6.940;2023-04-25T00:48:33;6.60;99.90
53208;DHT22;39093;52.788;6.940;2023-04-25T00:51:03;6.60;99.90
53208;DHT22;39093;52.788;6.940;2023-04-25T00:53:30;6.50;99.90
53208;DHT22;39093;52.788;6.940;2023-04-25T00:55:58;6.50;99.90
53208;DHT22;39093;52.788;6.940;2023-04-25T00:58:25;6.40;99.90
53208;DHT22;39093;52.788;6.940;2023-04-25T01:00:56;6.40;99.90
53208;DHT22;39093;52.788;6.940;2023-04-25T01:03:24;6.40;99.90
53208;DHT22;39093;52.788;6.940;2023-04-25T01:05:51;6.50;99.90
53208;DHT22;39093;52.788;6.940;2023-04-25T01:08:18;6.20;99.90
53208;DHT22;39093;52.788;6.940;2023-04-25T01:10:47;6.40;99.90
53208;DHT22;39093;52.788;6.940;2023-04-25T01:13:14;6.30;99.90
53208;DHT22;39093;52.788;6.940;2023-04-25T01:15:41;6.20;99.90
53208;DHT22;39093;52.788;6.940;2023-04-25T01:18:08;6.30;99.90
53208;DHT22;39093;52.788;6.940;2023-04-25T01:20:37;6.20;99.90
53208;DHT22;39093;52.788;6.940;2023-04-25T01:23:05;6.20;99.90
53208;DHT22;39093;52.788;6.940;2023-04-25T01:25:32;6.20;99.90
53208;DHT22;39093;52.788;6.940;2023-04-25T01:28:01;6.20;99.90
53208;DHT22;39093;52.788;6.940;2023-04-25T01:30:29;6.10;99.90
53208;DHT22;39093;52.788;6.940;2023-04-25T01:32:56;6.10;99.90
53208;DHT22;39093;52.788;6.940;2023-04-25T01:35:23;6.10;99.90
53208;DHT22;39093;52.788;6.940;2023-04-25T01:37:52;6.10;99.90
53208;DHT22;39093;52.788;6.940;2023-04-25T01:40:21;5.90;99.90
53208;DHT22;39093;52.788;6.940;2023-04-25T01:42:49;6.00;99.90
53208;DHT22;39093;52.788;6.940;2023-04-25T01:45:17;5.90;99.90
53208;DHT22;39093;52.788;6.940;2023-04-25T01:47:44;5.90;99.90
53208;DHT22;39093;52.788;6.940;2023-04-25T01:50:18;5.80;99.90
53208;DHT22;39093;52.788;6.940;2023-04-25T01:52:45;5.80;99.90
53208;DHT22;39093;52.788;6.940;2023-04-25T01:55:12;5.80;99.90
53208;DHT22;39093;52.788;6.940;2023-04-25T01:57:39;5.80;99.90
53208;DHT22;39093;52.788;6.940;2023-04-25T02:00:07;5.80;99.90
53208;DHT22;39093;52.788;6.940;2023-04-25T02:02:35;5.80;99.90
53208;DHT22;39093;52.788;6.940;2023-04-25T02:05:02;5.80;99.90
53208;DHT22;39093;52.788;6.940;2023-04-25T02:07:29;5.80;99.90
53208;DHT22;39093;52.788;6.940;2023-04-25T02:09:56;5.80;99.90
53208;DHT22;39093;52.788;6.940;2023-04-25T02:12:23;5.70;99.90
53208;DHT22;39093;52.788;6.940;2023-04-25T02:14:52;5.70;99.90
53208;DHT22;39093;52.788;6.940;2023-04-25T02:17:19;5.70;99.90
53208;DHT22;39093;52.788;6.940;2023-04-25T02:19:47;5.70;99.90
53208;DHT22;39093;52.788;6.940;2023-04-25T02:22:14;5.70;99.90
53208;DHT22;39093;52.788;6.940;2023-04-25T02:24:41;5.80;99.90
53208;DHT22;39093;52.788;6.940;2023-04-25T02:27:08;5.80;99.90
53208;DHT22;39093;52.788;6.940;2023-04-25T02:29:36;5.90;99.90
53208;DHT22;39093;52.788;6.940;2023-04-25T02:32:03;5.90;99.90
53208;DHT22;39093;52.788;6.940;2023-04-25T02:34:30;5.90;99.90
53208;DHT22;39093;52.788;6.940;2023-04-25T02:36:57;5.80;99.90
53208;DHT22;39093;52.788;6.940;2023-04-25T02:39:24;5.90;99.90
53208;DHT22;39093;52.788;6.940;2023-04-25T02:41:53;5.90;99.90
53208;DHT22;39093;52.788;6.940;2023-04-25T02:44:20;5.90;99.90
53208;DHT22;39093;52.788;6.940;2023-04-25T02:46:48;6.00;99.90
53208;DHT22;39093;52.788;6.940;2023-04-25T02:49:15;5.90;99.90
53208;DHT22;39093;52.788;6.940;2023-04-25T02:51:42;5.90;99.90
53208;DHT22;39093;52.788;6.940;2023-04-25T02:54:09;5.90;99.90
53208;DHT22;39093;52.788;6.940;2023-04-25T02:56:36;6.00;99.90
53208;DHT22;39093;52.788;6.940;2023-04-25T02:59:03;6.00;99.90
53208;DHT22;39093;52.788;6.940;2023-04-25T03:01:30;5.90;99.90
53208;DHT22;39093;52.788;6.940;2023-04-25T03:03:57;5.90;99.90
53208;DHT22;39093;52.788;6.940;2023-04-25T03:06:24;6.00;99.90
53208;DHT22;39093;52.788;6.940;2023-04-25T03:08:51;5.90;99.90
53208;DHT22;39093;52.788;6.940;2023-04-25T03:11:18;5.90;99.90
53208;DHT22;39093;52.788;6.940;2023-04-25T03:13:46;5.90;99.90
53208;DHT22;39093;52.788;6.940;2023-04-25T03:16:14;5.90;99.90
53208;DHT22;39093;52.788;6.940;2023-04-25T03:18:41;6.10;99.90
53208;DHT22;39093;52.788;6.940;2023-04-25T03:21:08;6.00;99.90
53208;DHT22;39093;52.788;6.940;2023-04-25T03:23:35;5.90;99.90
53208;DHT22;39093;52.788;6.940;2023-04-25T03:26:03;5.90;99.90
53208;DHT22;39093;52.788;6.940;2023-04-25T03:28:29;5.90;99.90
53208;DHT22;39093;52.788;6.940;2023-04-25T03:30:57;5.90;99.90
53208;DHT22;39093;52.788;6.940;2023-04-25T03:33:24;5.90;99.90
53208;DHT22;39093;52.788;6.940;2023-04-25T03:35:51;5.90;99.90
53208;DHT22;39093;52.788;6.940;2023-04-25T03:38:18;5.90;99.90
53208;DHT22;39093;52.788;6.940;2023-04-25T03:40:45;5.90;99.90
53208;DHT22;39093;52.788;6.940;2023-04-25T03:43:12;5.90;99.90
53208;DHT22;39093;52.788;6.940;2023-04-25T03:45:39;5.90;99.90
53208;DHT22;39093;52.788;6.940;2023-04-25T03:48:06;5.90;99.90
53208;DHT22;39093;52.788;6.940;2023-04-25T03:50:33;5.90;99.90
53208;DHT22;39093;52.788;6.940;2023-04-25T03:53:00;5.90;99.90
53208;DHT22;39093;52.788;6.940;2023-04-25T03:55:27;5.90;99.90
53208;DHT22;39093;52.788;6.940;2023-04-25T03:57:54;5.90;99.90
53208;DHT22;39093;52.788;6.940;2023-04-25T04:00:21;6.00;99.90
53208;DHT22;39093;52.788;6.940;2023-04-25T04:02:48;5.90;99.90
53208;DHT22;39093;52.788;6.940;2023-04-25T04:05:15;5.90;99.90
53208;DHT22;39093;52.788;6.940;2023-04-25T04:07:42;5.80;99.90
53208;DHT22;39093;52.788;6.940;2023-04-25T04:10:10;5.80;99.90
53208;DHT22;39093;52.788;6.940;2023-04-25T04:12:37;5.90;99.90
53208;DHT22;39093;52.788;6.940;2023-04-25T04:15:05;5.80;99.90
53208;DHT22;39093;52.788;6.940;2023-04-25T04:17:33;5.80;99.90
53208;DHT22;39093;52.788;6.940;2023-04-25T04:20:02;5.90;99.90
53208;DHT22;39093;52.788;6.940;2023-04-25T04:22:30;5.80;99.90
53208;DHT22;39093;52.788;6.940;2023-04-25T04:24:57;5.80;99.90
53208;DHT22;39093;52.788;6.940;2023-04-25T04:27:23;5.80;99.90
53208;DHT22;39093;52.788;6.940;2023-04-25T04:29:50;5.80;99.90
53208;DHT22;39093;52.788;6.940;2023-04-25T04:32:20;5.80;99.90
53208;DHT22;39093;52.788;6.940;2023-04-25T04:34:46;5.70;99.90
53208;DHT22;39093;52.788;6.940;2023-04-25T04:37:14;5.70;99.90
53208;DHT22;39093;52.788;6.940;2023-04-25T04:39:41;5.70;99.90
53208;DHT22;39093;52.788;6.940;2023-04-25T04:42:08;5.80;99.90
53208;DHT22;39093;52.788;6.940;2023-04-25T04:44:35;5.70;99.90
53208;DHT22;39093;52.788;6.940;2023-04-25T04:47:03;5.70;99.90
53208;DHT22;39093;52.788;6.940;2023-04-25T04:49:32;5.70;99.90
53208;DHT22;39093;52.788;6.940;2023-04-25T04:51:59;5.70;99.90
53208;DHT22;39093;52.788;6.940;2023-04-25T04:54:27;5.70;99.90
53208;DHT22;39093;52.788;6.940;2023-04-25T04:56:54;5.70;99.90
53208;DHT22;39093;52.788;6.940;2023-04-25T04:59:21;5.70;99.90
53208;DHT22;39093;52.788;6.940;2023-04-25T05:01:48;5.70;99.90
53208;DHT22;39093;52.788;6.940;2023-04-25T05:04:15;5.70;99.90
53208;DHT22;39093;52.788;6.940;2023-04-25T05:06:42;5.70;99.90
53208;DHT22;39093;52.788;6.940;2023-04-25T05:09:09;5.70;99.90
53208;DHT22;39093;52.788;6.940;2023-04-25T05:11:35;5.70;99.90
53208;DHT22;39093;52.788;6.940;2023-04-25T05:14:02;5.70;99.90
53208;DHT22;39093;52.788;6.940;2023-04-25T05:16:29;5.80;99.90
53208;DHT22;39093;52.788;6.940;2023-04-25T05:18:56;5.80;99.90
53208;DHT22;39093;52.788;6.940;2023-04-25T05:21:23;6.00;99.90
53208;DHT22;39093;52.788;6.940;2023-04-25T05:23:50;6.00;99.90
53208;DHT22;39093;52.788;6.940;2023-04-25T05:26:17;6.10;99.90
53208;DHT22;39093;52.788;6.940;2023-04-25T05:28:44;6.30;99.90
53208;DHT22;39093;52.788;6.940;2023-04-25T05:31:11;6.10;99.90
53208;DHT22;39093;52.788;6.940;2023-04-25T05:33:39;6.10;99.90
53208;DHT22;39093;52.788;6.940;2023-04-25T05:36:06;6.10;99.90
53208;DHT22;39093;52.788;6.940;2023-04-25T05:38:33;6.20;99.90
53208;DHT22;39093;52.788;6.940;2023-04-25T05:41:01;6.20;99.90
53208;DHT22;39093;52.788;6.940;2023-04-25T05:43:28;6.30;99.90
53208;DHT22;39093;52.788;6.940;2023-04-25T05:45:55;6.30;99.90
53208;DHT22;39093;52.788;6.940;2023-04-25T05:48:22;6.30;99.90
53208;DHT22;39093;52.788;6.940;2023-04-25T05:50:49;6.50;99.90
53208;DHT22;39093;52.788;6.940;2023-04-25T05:53:19;6.50;99.90
53208;DHT22;39093;52.788;6.940;2023-04-25T05:55:46;6.60;99.90
53208;DHT22;39093;52.788;6.940;2023-04-25T05:58:13;6.70;99.90
53208;DHT22;39093;52.788;6.940;2023-04-25T06:00:40;6.70;99.90
53208;DHT22;39093;52.788;6.940;2023-04-25T06:03:08;6.70;99.90
53208;DHT22;39093;52.788;6.940;2023-04-25T06:05:36;6.80;99.90
53208;DHT22;39093;52.788;6.940;2023-04-25T06:08:03;6.90;99.90
53208;DHT22;39093;52.788;6.940;2023-04-25T06:10:30;6.90;99.90
53208;DHT22;39093;52.788;6.940;2023-04-25T06:12:57;6.90;99.90
53208;DHT22;39093;52.788;6.940;2023-04-25T06:15:24;7.00;99.90
53208;DHT22;39093;52.788;6.940;2023-04-25T06:17:54;7.10;99.90
53208;DHT22;39093;52.788;6.940;2023-04-25T06:20:21;7.20;99.90
53208;DHT22;39093;52.788;6.940;2023-04-25T06:22:51;7.30;99.90
53208;DHT22;39093;52.788;6.940;2023-04-25T06:25:21;7.30;99.90
53208;DHT22;39093;52.788;6.940;2023-04-25T06:27:47;7.40;99.90
53208;DHT22;39093;52.788;6.940;2023-04-25T06:30:14;7.40;99.90
53208;DHT22;39093;52.788;6.940;2023-04-25T06:32:43;7.50;99.90
53208;DHT22;39093;52.788;6.940;2023-04-25T06:35:09;7.60;99.90
53208;DHT22;39093;52.788;6.940;2023-04-25T06:37:37;7.60;99.90
53208;DHT22;39093;52.788;6.940;2023-04-25T06:40:04;7.80;99.90
53208;DHT22;39093;52.788;6.940;2023-04-25T06:42:31;7.80;99.90
53208;DHT22;39093;52.788;6.940;2023-04-25T06:44:58;7.90;99.90
53208;DHT22;39093;52.788;6.940;2023-04-25T06:47:25;8.00;99.90
53208;DHT22;39093;52.788;6.940;2023-04-25T06:49:52;8.10;99.90
53208;DHT22;39093;52.788;6.940;2023-04-25T06:52:19;8.40;99.90
53208;DHT22;39093;52.788;6.940;2023-04-25T06:54:46;8.70;99.90
53208;DHT22;39093;52.788;6.940;2023-04-25T06:57:13;8.80;99.90
53208;DHT22;39093;52.788;6.940;2023-04-25T06:59:40;9.00;99.90
53208;DHT22;39093;52.788;6.940;2023-04-25T07:02:07;9.20;99.90
53208;DHT22;39093;52.788;6.940;2023-04-25T07:04:34;9.20;99.90
53208;DHT22;39093;52.788;6.940;2023-04-25T07:07:01;9.20;99.90
53208;DHT22;39093;52.788;6.940;2023-04-25T07:09:29;9.20;99.90
53208;DHT22;39093;52.788;6.940;2023-04-25T07:11:56;9.30;99.90
53208;DHT22;39093;52.788;6.940;2023-04-25T07:14:23;9.40;99.90
53208;DHT22;39093;52.788;6.940;2023-04-25T07:16:50;9.30;99.90
53208;DHT22;39093;52.788;6.940;2023-04-25T07:19:18;9.10;99.90
53208;DHT22;39093;52.788;6.940;2023-04-25T07:21:44;8.80;99.90
53208;DHT22;39093;52.788;6.940;2023-04-25T07:24:11;9.00;99.90
53208;DHT22;39093;52.788;6.940;2023-04-25T07:26:41;9.00;99.90
53208;DHT22;39093;52.788;6.940;2023-04-25T07:29:08;9.10;99.90
53208;DHT22;39093;52.788;6.940;2023-04-25T07:31:36;9.30;99.90
53208;DHT22;39093;52.788;6.940;2023-04-25T07:34:03;9.60;99.90
53208;DHT22;39093;52.788;6.940;2023-04-25T07:36:30;9.70;99.90
53208;DHT22;39093;52.788;6.940;2023-04-25T07:38:57;9.50;99.90
53208;DHT22;39093;52.788;6.940;2023-04-25T07:41:24;9.30;99.90
53208;DHT22;39093;52.788;6.940;2023-04-25T07:43:51;9.00;99.90
53208;DHT22;39093;52.788;6.940;2023-04-25T07:46:18;8.90;99.90
53208;DHT22;39093;52.788;6.940;2023-04-25T07:48:45;8.70;99.90
53208;DHT22;39093;52.788;6.940;2023-04-25T07:51:12;8.70;99.90
53208;DHT22;39093;52.788;6.940;2023-04-25T07:53:39;8.90;99.90
53208;DHT22;39093;52.788;6.940;2023-04-25T07:56:06;9.20;99.90
53208;DHT22;39093;52.788;6.940;2023-04-25T07:58:33;9.40;99.90
53208;DHT22;39093;52.788;6.940;2023-04-25T08:01:00;9.60;99.90
53208;DHT22;39093;52.788;6.940;2023-04-25T08:03:27;9.70;99.90
53208;DHT22;39093;52.788;6.940;2023-04-25T08:05:55;9.80;99.90
53208;DHT22;39093;52.788;6.940;2023-04-25T08:08:22;10.00;99.90
53208;DHT22;39093;52.788;6.940;2023-04-25T08:10:49;10.30;99.90
53208;DHT22;39093;52.788;6.940;2023-04-25T08:13:16;10.50;99.90
53208;DHT22;39093;52.788;6.940;2023-04-25T08:15:43;10.90;99.90
53208;DHT22;39093;52.788;6.940;2023-04-25T08:18:10;11.20;99.90
53208;DHT22;39093;52.788;6.940;2023-04-25T08:20:37;11.10;99.90
53208;DHT22;39093;52.788;6.940;2023-04-25T08:23:04;10.80;99.90
53208;DHT22;39093;52.788;6.940;2023-04-25T08:25:31;10.40;99.90
53208;DHT22;39093;52.788;6.940;2023-04-25T08:27:58;10.00;99.90
53208;DHT22;39093;52.788;6.940;2023-04-25T08:30:26;9.60;99.90
53208;DHT22;39093;52.788;6.940;2023-04-25T08:32:53;9.40;99.90
53208;DHT22;39093;52.788;6.940;2023-04-25T08:35:20;9.60;99.90
53208;DHT22;39093;52.788;6.940;2023-04-25T08:37:47;10.10;99.90
53208;DHT22;39093;52.788;6.940;2023-04-25T08:40:16;10.60;99.90
53208;DHT22;39093;52.788;6.940;2023-04-25T08:42:42;10.60;99.90
53208;DHT22;39093;52.788;6.940;2023-04-25T08:45:10;10.60;99.90
53208;DHT22;39093;52.788;6.940;2023-04-25T08:47:39;10.70;99.90
53208;DHT22;39093;52.788;6.940;2023-04-25T08:50:08;10.50;99.90
53208;DHT22;39093;52.788;6.940;2023-04-25T08:52:37;10.20;99.90
53208;DHT22;39093;52.788;6.940;2023-04-25T08:55:07;9.90;99.90
53208;DHT22;39093;52.788;6.940;2023-04-25T08:57:35;9.30;99.90
53208;DHT22;39093;52.788;6.940;2023-04-25T09:00:04;8.90;99.90
53208;DHT22;39093;52.788;6.940;2023-04-25T09:02:31;8.60;99.90
53208;DHT22;39093;52.788;6.940;2023-04-25T09:04:59;8.40;99.90
53208;DHT22;39093;52.788;6.940;2023-04-25T09:07:26;8.30;99.90
53208;DHT22;39093;52.788;6.940;2023-04-25T09:09:53;8.20;99.90
53208;DHT22;39093;52.788;6.940;2023-04-25T09:12:21;8.50;99.90
53208;DHT22;39093;52.788;6.940;2023-04-25T09:15:06;9.10;99.90
53208;DHT22;39093;52.788;6.940;2023-04-25T09:17:34;9.80;99.90
53208;DHT22;39093;52.788;6.940;2023-04-25T09:20:07;10.20;99.90
53208;DHT22;39093;52.788;6.940;2023-04-25T09:22:36;10.70;99.90
53208;DHT22;39093;52.788;6.940;2023-04-25T09:25:13;10.90;99.90
53208;DHT22;39093;52.788;6.940;2023-04-25T09:27:51;11.20;99.90
53208;DHT22;39093;52.788;6.940;2023-04-25T09:30:28;11.60;99.90
53208;DHT22;39093;52.788;6.940;2023-04-25T09:32:57;11.90;99.90
53208;DHT22;39093;52.788;6.940;2023-04-25T09:35:25;12.30;99.90
53208;DHT22;39093;52.788;6.940;2023-04-25T09:37:55;11.90;98.50
53208;DHT22;39093;52.788;6.940;2023-04-25T09:40:22;11.60;99.40
53208;DHT22;39093;52.788;6.940;2023-04-25T09:42:49;11.20;99.90
53208;DHT22;39093;52.788;6.940;2023-04-25T09:45:17;10.70;99.90
53208;DHT22;39093;52.788;6.940;2023-04-25T09:47:44;10.40;99.90
53208;DHT22;39093;52.788;6.940;2023-04-25T09:50:15;10.10;99.90
53208;DHT22;39093;52.788;6.940;2023-04-25T09:52:43;10.00;99.90
53208;DHT22;39093;52.788;6.940;2023-04-25T09:55:10;9.80;99.90
53208;DHT22;39093;52.788;6.940;2023-04-25T09:57:37;9.70;99.90
53208;DHT22;39093;52.788;6.940;2023-04-25T10:00:08;9.60;99.90
53208;DHT22;39093;52.788;6.940;2023-04-25T10:02:42;9.50;99.90
53208;DHT22;39093;52.788;6.940;2023-04-25T10:05:13;9.40;99.90
53208;DHT22;39093;52.788;6.940;2023-04-25T10:07:41;9.30;99.90
53208;DHT22;39093;52.788;6.940;2023-04-25T10:10:08;9.40;99.90
53208;DHT22;39093;52.788;6.940;2023-04-25T10:12:38;9.50;99.90
53208;DHT22;39093;52.788;6.940;2023-04-25T10:15:08;9.80;99.90
53208;DHT22;39093;52.788;6.940;2023-04-25T10:17:36;10.10;99.90
53208;DHT22;39093;52.788;6.940;2023-04-25T10:20:03;10.30;99.90
53208;DHT22;39093;52.788;6.940;2023-04-25T10:22:37;10.50;99.90
53208;DHT22;39093;52.788;6.940;2023-04-25T10:25:08;10.60;99.90
53208;DHT22;39093;52.788;6.940;2023-04-25T10:27:35;10.60;98.60
53208;DHT22;39093;52.788;6.940;2023-04-25T10:30:06;11.10;99.90
53208;DHT22;39093;52.788;6.940;2023-04-25T10:32:36;11.70;99.90
53208;DHT22;39093;52.788;6.940;2023-04-25T10:35:25;12.20;99.10
53208;DHT22;39093;52.788;6.940;2023-04-25T10:38:10;12.80;98.20
53208;DHT22;39093;52.788;6.940;2023-04-25T10:40:40;12.80;94.00
53208;DHT22;39093;52.788;6.940;2023-04-25T10:43:36;12.90;97.60
53208;DHT22;39093;52.788;6.940;2023-04-25T10:46:27;12.50;95.80
53208;DHT22;39093;52.788;6.940;2023-04-25T10:49:02;11.00;99.90
53208;DHT22;39093;52.788;6.940;2023-04-25T10:51:31;10.40;99.90
53208;DHT22;39093;52.788;6.940;2023-04-25T10:54:22;9.70;99.90
53208;DHT22;39093;52.788;6.940;2023-04-25T10:56:51;9.50;99.90
53208;DHT22;39093;52.788;6.940;2023-04-25T10:59:19;9.30;99.90
53208;DHT22;39093;52.788;6.940;2023-04-25T11:01:51;9.40;99.90
53208;DHT22;39093;52.788;6.940;2023-04-25T11:04:30;10.30;99.90
53208;DHT22;39093;52.788;6.940;2023-04-25T11:09:45;11.90;99.90
53208;DHT22;39093;52.788;6.940;2023-04-25T11:12:12;12.40;99.90
53208;DHT22;39093;52.788;6.940;2023-04-25T11:14:39;12.80;99.90
53208;DHT22;39093;52.788;6.940;2023-04-25T11:17:11;13.00;99.90
53208;DHT22;39093;52.788;6.940;2023-04-25T11:19:38;13.40;99.90
53208;DHT22;39093;52.788;6.940;2023-04-25T11:22:05;13.90;99.90
53208;DHT22;39093;52.788;6.940;2023-04-25T11:24:36;14.40;99.90
53208;DHT22;39093;52.788;6.940;2023-04-25T11:27:04;14.80;99.90
53208;DHT22;39093;52.788;6.940;2023-04-25T11:29:33;14.60;99.90
53208;DHT22;39093;52.788;6.940;2023-04-25T11:32:01;14.00;99.20
53208;DHT22;39093;52.788;6.940;2023-04-25T11:34:30;13.40;99.80
53208;DHT22;39093;52.788;6.940;2023-04-25T11:36:58;12.90;99.90
53208;DHT22;39093;52.788;6.940;2023-04-25T11:39:26;12.50;99.90
53208;DHT22;39093;52.788;6.940;2023-04-25T11:41:54;12.30;99.90
53208;DHT22;39093;52.788;6.940;2023-04-25T11:44:22;12.30;99.90
53208;DHT22;39093;52.788;6.940;2023-04-25T11:46:49;12.30;99.90
53208;DHT22;39093;52.788;6.940;2023-04-25T11:49:16;12.10;99.90
53208;DHT22;39093;52.788;6.940;2023-04-25T11:51:48;11.30;99.90
53208;DHT22;39093;52.788;6.940;2023-04-25T11:54:15;10.50;99.90
53208;DHT22;39093;52.788;6.940;2023-04-25T11:56:43;10.00;99.90
53208;DHT22;39093;52.788;6.940;2023-04-25T11:59:10;9.80;99.90
53208;DHT22;39093;52.788;6.940;2023-04-25T12:01:40;9.90;99.90
53208;DHT22;39093;52.788;6.940;2023-04-25T12:04:15;10.70;99.90
53208;DHT22;39093;52.788;6.940;2023-04-25T12:06:44;11.90;99.90
53208;DHT22;39093;52.788;6.940;2023-04-25T12:09:36;12.70;99.90
53208;DHT22;39093;52.788;6.940;2023-04-25T12:12:02;13.10;99.90
53208;DHT22;39093;52.788;6.940;2023-04-25T12:14:32;13.50;99.90
53208;DHT22;39093;52.788;6.940;2023-04-25T12:17:01;14.20;99.90
53208;DHT22;39093;52.788;6.940;2023-04-25T12:19:33;14.40;99.40
53208;DHT22;39093;52.788;6.940;2023-04-25T12:22:10;14.60;98.30
53208;DHT22;39093;52.788;6.940;2023-04-25T12:24:45;14.20;97.80
53208;DHT22;39093;52.788;6.940;2023-04-25T12:27:14;13.90;96.10
53208;DHT22;39093;52.788;6.940;2023-04-25T12:29:53;13.30;96.10
53208;DHT22;39093;52.788;6.940;2023-04-25T12:32:21;13.00;96.50
53208;DHT22;39093;52.788;6.940;2023-04-25T12:34:48;13.30;98.10
53208;DHT22;39093;52.788;6.940;2023-04-25T12:37:18;13.90;97.40
53208;DHT22;39093;52.788;6.940;2023-04-25T12:39:45;14.40;95.30
53208;DHT22;39093;52.788;6.940;2023-04-25T12:42:18;14.60;94.60
53208;DHT22;39093;52.788;6.940;2023-04-25T12:44:45;14.30;93.40
53208;DHT22;39093;52.788;6.940;2023-04-25T12:47:13;14.10;95.80
53208;DHT22;39093;52.788;6.940;2023-04-25T12:49:41;14.20;95.10
53208;DHT22;39093;52.788;6.940;2023-04-25T12:52:08;14.10;95.60
53208;DHT22;39093;52.788;6.940;2023-04-25T12:54:34;13.90;95.50
53208;DHT22;39093;52.788;6.940;2023-04-25T12:57:02;13.70;95.50
53208;DHT22;39093;52.788;6.940;2023-04-25T12:59:29;13.10;96.30
53208;DHT22;39093;52.788;6.940;2023-04-25T13:01:56;12.60;97.30
53208;DHT22;39093;52.788;6.940;2023-04-25T13:04:23;12.40;99.90
53208;DHT22;39093;52.788;6.940;2023-04-25T13:06:50;12.70;97.70
53208;DHT22;39093;52.788;6.940;2023-04-25T13:09:17;13.50;97.20
53208;DHT22;39093;52.788;6.940;2023-04-25T13:11:44;13.90;95.50
53208;DHT22;39093;52.788;6.940;2023-04-25T13:14:12;14.50;95.00
53208;DHT22;39093;52.788;6.940;2023-04-25T13:16:39;15.60;95.50
53208;DHT22;39093;52.788;6.940;2023-04-25T13:19:06;15.50;93.00
53208;DHT22;39093;52.788;6.940;2023-04-25T13:21:37;14.70;91.90
53208;DHT22;39093;52.788;6.940;2023-04-25T13:24:04;14.00;92.10
53208;DHT22;39093;52.788;6.940;2023-04-25T13:26:31;13.60;93.30
53208;DHT22;39093;52.788;6.940;2023-04-25T13:28:58;13.30;92.00
53208;DHT22;39093;52.788;6.940;2023-04-25T13:31:27;13.10;91.50
53208;DHT22;39093;52.788;6.940;2023-04-25T13:33:53;13.40;92.90
53208;DHT22;39093;52.788;6.940;2023-04-25T13:36:20;14.00;92.90
53208;DHT22;39093;52.788;6.940;2023-04-25T13:38:48;14.90;92.60
53208;DHT22;39093;52.788;6.940;2023-04-25T13:41:16;15.30;88.20
53208;DHT22;39093;52.788;6.940;2023-04-25T13:43:46;16.00;86.10
53208;DHT22;39093;52.788;6.940;2023-04-25T13:46:15;15.60;86.00
53208;DHT22;39093;52.788;6.940;2023-04-25T13:49:02;14.90;88.00
53208;DHT22;39093;52.788;6.940;2023-04-25T13:51:38;14.30;90.00
53208;DHT22;39093;52.788;6.940;2023-04-25T13:54:05;14.40;89.80
53208;DHT22;39093;52.788;6.940;2023-04-25T13:56:32;14.20;89.60
53208;DHT22;39093;52.788;6.940;2023-04-25T13:58:58;14.20;89.20
53208;DHT22;39093;52.788;6.940;2023-04-25T14:01:25;13.90;90.60
53208;DHT22;39093;52.788;6.940;2023-04-25T14:03:53;14.10;91.50
53208;DHT22;39093;52.788;6.940;2023-04-25T14:06:21;14.20;91.40
53208;DHT22;39093;52.788;6.940;2023-04-25T14:08:50;14.10;91.20
53208;DHT22;39093;52.788;6.940;2023-04-25T14:11:17;14.50;91.10
53208;DHT22;39093;52.788;6.940;2023-04-25T14:13:47;14.70;90.30
53208;DHT22;39093;52.788;6.940;2023-04-25T14:16:16;14.00;90.80
53208;DHT22;39093;52.788;6.940;2023-04-25T14:18:43;12.90;93.30
53208;DHT22;39093;52.788;6.940;2023-04-25T14:21:10;12.00;94.60
53208;DHT22;39093;52.788;6.940;2023-04-25T14:23:47;11.00;96.70
53208;DHT22;39093;52.788;6.940;2023-04-25T14:26:14;10.30;97.30
53208;DHT22;39093;52.788;6.940;2023-04-25T14:28:41;10.10;99.90
53208;DHT22;39093;52.788;6.940;2023-04-25T14:31:08;10.00;99.90
53208;DHT22;39093;52.788;6.940;2023-04-25T14:33:35;10.10;99.90
53208;DHT22;39093;52.788;6.940;2023-04-25T14:36:03;10.30;99.90
53208;DHT22;39093;52.788;6.940;2023-04-25T14:38:30;10.60;99.90
53208;DHT22;39093;52.788;6.940;2023-04-25T14:40:57;11.10;99.90
53208;DHT22;39093;52.788;6.940;2023-04-25T14:43:24;11.80;99.90
53208;DHT22;39093;52.788;6.940;2023-04-25T14:45:51;12.10;98.60
53208;DHT22;39093;52.788;6.940;2023-04-25T14:48:18;11.80;99.20
53208;DHT22;39093;52.788;6.940;2023-04-25T14:50:46;11.30;99.90
53208;DHT22;39093;52.788;6.940;2023-04-25T14:53:13;11.80;99.90
53208;DHT22;39093;52.788;6.940;2023-04-25T14:55:40;12.70;98.10
53208;DHT22;39093;52.788;6.940;2023-04-25T14:58:07;13.50;98.60
53208;DHT22;39093;52.788;6.940;2023-04-25T15:00:34;13.70;97.60
53208;DHT22;39093;52.788;6.940;2023-04-25T15:03:02;13.40;96.00
53208;DHT22;39093;52.788;6.940;2023-04-25T15:05:30;13.00;96.80
53208;DHT22;39093;52.788;6.940;2023-04-25T15:07:56;13.20;95.90
53208;DHT22;39093;52.788;6.940;2023-04-25T15:10:23;13.60;93.20
53208;DHT22;39093;52.788;6.940;2023-04-25T15:12:50;14.00;93.00
53208;DHT22;39093;52.788;6.940;2023-04-25T15:15:24;14.10;90.40
53208;DHT22;39093;52.788;6.940;2023-04-25T15:17:53;13.90;89.90
53208;DHT22;39093;52.788;6.940;2023-04-25T15:20:25;14.60;90.70
53208;DHT22;39093;52.788;6.940;2023-04-25T15:22:53;15.10;90.20
53208;DHT22;39093;52.788;6.940;2023-04-25T15:25:21;15.10;85.40
53208;DHT22;39093;52.788;6.940;2023-04-25T15:27:48;15.30;83.70
53208;DHT22;39093;52.788;6.940;2023-04-25T15:30:19;15.00;85.30
53208;DHT22;39093;52.788;6.940;2023-04-25T15:32:47;15.00;82.60
53208;DHT22;39093;52.788;6.940;2023-04-25T15:35:14;15.10;82.70
53208;DHT22;39093;52.788;6.940;2023-04-25T15:37:42;14.50;80.90
53208;DHT22;39093;52.788;6.940;2023-04-25T15:40:16;13.80;82.80
53208;DHT22;39093;52.788;6.940;2023-04-25T15:42:50;13.30;86.20
53208;DHT22;39093;52.788;6.940;2023-04-25T15:45:19;11.90;87.40
53208;DHT22;39093;52.788;6.940;2023-04-25T15:47:48;11.60;91.20
53208;DHT22;39093;52.788;6.940;2023-04-25T15:50:18;11.10;93.10